sensor_id;sensor_type;location;lat;lon;timestamp;P1;durP1;ratioP1;P2;durP2;ratioP2
58137;SDS011;43955;47.362;18.930;2023-05-07T00:00:10;9.32;;;6.93;;
58137;SDS011;43955;47.362;18.930;2023-05-07T00:02:38;10.27;;;6.37;;
58137;SDS011;43955;47.362;18.930;2023-05-07T00:05:06;8.55;;;6.45;;
58137;SDS011;43955;47.362;18.930;2023-05-07T00:07:34;10.27;;;6.65;;
58137;SDS011;43955;47.362;18.930;2023-05-07T00:10:02;11.63;;;7.32;;
58137;SDS011;43955;47.362;18.930;2023-05-07T00:12:30;13.57;;;7.55;;
58137;SDS011;43955;47.362;18.930;2023-05-07T00:15:01;10.40;;;6.82;;
58137;SDS011;43955;47.362;18.930;2023-05-07T00:17:30;11.85;;;7.47;;
58137;SDS011;43955;47.362;18.930;2023-05-07T00:19:57;13.88;;;7.87;;
58137;SDS011;43955;47.362;18.930;2023-05-07T00:22:25;11.38;;;6.90;;
58137;SDS011;43955;47.362;18.930;2023-05-07T00:24:52;14.73;;;8.25;;
58137;SDS011;43955;47.362;18.930;2023-05-07T00:27:19;12.37;;;8.27;;
58137;SDS011;43955;47.362;18.930;2023-05-07T00:29:47;14.25;;;8.45;;
58137;SDS011;43955;47.362;18.930;2023-05-07T00:32:14;12.68;;;8.02;;
58137;SDS011;43955;47.362;18.930;2023-05-07T00:34:42;12.10;;;8.55;;
58137;SDS011;43955;47.362;18.930;2023-05-07T00:37:10;12.45;;;8.02;;
58137;SDS011;43955;47.362;18.930;2023-05-07T00:39:39;13.93;;;8.05;;
58137;SDS011;43955;47.362;18.930;2023-05-07T00:42:06;11.10;;;7.25;;
58137;SDS011;43955;47.362;18.930;2023-05-07T00:44:33;9.25;;;6.85;;
58137;SDS011;43955;47.362;18.930;2023-05-07T00:47:01;10.60;;;7.05;;
58137;SDS011;43955;47.362;18.930;2023-05-07T00:49:34;10.52;;;7.03;;
58137;SDS011;43955;47.362;18.930;2023-05-07T00:52:08;9.55;;;6.30;;
58137;SDS011;43955;47.362;18.930;2023-05-07T00:54:37;12.18;;;7.93;;
58137;SDS011;43955;47.362;18.930;2023-05-07T00:57:04;12.00;;;7.40;;
58137;SDS011;43955;47.362;18.930;2023-05-07T00:59:32;10.25;;;6.57;;
58137;SDS011;43955;47.362;18.930;2023-05-07T01:01:59;9.10;;;6.50;;
58137;SDS011;43955;47.362;18.930;2023-05-07T01:04:26;9.55;;;6.30;;
58137;SDS011;43955;47.362;18.930;2023-05-07T01:06:55;10.40;;;6.80;;
58137;SDS011;43955;47.362;18.930;2023-05-07T01:09:24;9.55;;;6.93;;
58137;SDS011;43955;47.362;18.930;2023-05-07T01:11:51;9.25;;;6.30;;
58137;SDS011;43955;47.362;18.930;2023-05-07T01:14:19;8.07;;;5.82;;
58137;SDS011;43955;47.362;18.930;2023-05-07T01:16:47;10.07;;;6.30;;
58137;SDS011;43955;47.362;18.930;2023-05-07T01:19:16;11.25;;;6.20;;
58137;SDS011;43955;47.362;18.930;2023-05-07T01:21:46;10.15;;;6.18;;
58137;SDS011;43955;47.362;18.930;2023-05-07T01:24:15;8.15;;;5.32;;
58137;SDS011;43955;47.362;18.930;2023-05-07T01:26:43;8.68;;;6.15;;
58137;SDS011;43955;47.362;18.930;2023-05-07T01:29:12;10.38;;;5.75;;
58137;SDS011;43955;47.362;18.930;2023-05-07T01:31:39;8.95;;;5.60;;
58137;SDS011;43955;47.362;18.930;2023-05-07T01:34:08;9.45;;;5.50;;
58137;SDS011;43955;47.362;18.930;2023-05-07T01:36:37;9.50;;;5.45;;
58137;SDS011;43955;47.362;18.930;2023-05-07T01:39:06;7.93;;;5.10;;
58137;SDS011;43955;47.362;18.930;2023-05-07T01:41:33;7.87;;;4.82;;
58137;SDS011;43955;47.362;18.930;2023-05-07T01:44:01;7.50;;;4.85;;
58137;SDS011;43955;47.362;18.930;2023-05-07T01:46:30;7.97;;;5.32;;
58137;SDS011;43955;47.362;18.930;2023-05-07T01:48:58;8.32;;;5.65;;
58137;SDS011;43955;47.362;18.930;2023-05-07T01:51:26;9.75;;;5.28;;
58137;SDS011;43955;47.362;18.930;2023-05-07T01:53:55;8.75;;;5.47;;
58137;SDS011;43955;47.362;18.930;2023-05-07T01:56:22;8.65;;;5.93;;
58137;SDS011;43955;47.362;18.930;2023-05-07T01:58:50;8.75;;;6.22;;
58137;SDS011;43955;47.362;18.930;2023-05-07T02:01:19;10.43;;;6.12;;
58137;SDS011;43955;47.362;18.930;2023-05-07T02:03:47;9.02;;;6.07;;
58137;SDS011;43955;47.362;18.930;2023-05-07T02:06:15;9.15;;;5.65;;
58137;SDS011;43955;47.362;18.930;2023-05-07T02:08:42;8.38;;;5.40;;
58137;SDS011;43955;47.362;18.930;2023-05-07T02:11:10;11.75;;;5.72;;
58137;SDS011;43955;47.362;18.930;2023-05-07T02:13:37;13.65;;;7.10;;
58137;SDS011;43955;47.362;18.930;2023-05-07T02:16:05;13.27;;;7.93;;
58137;SDS011;43955;47.362;18.930;2023-05-07T02:18:33;11.27;;;7.37;;
58137;SDS011;43955;47.362;18.930;2023-05-07T02:21:00;11.02;;;7.28;;
58137;SDS011;43955;47.362;18.930;2023-05-07T02:23:27;11.40;;;7.07;;
58137;SDS011;43955;47.362;18.930;2023-05-07T02:25:55;10.07;;;6.72;;
58137;SDS011;43955;47.362;18.930;2023-05-07T02:28:22;13.55;;;7.87;;
58137;SDS011;43955;47.362;18.930;2023-05-07T02:30:49;11.63;;;7.50;;
58137;SDS011;43955;47.362;18.930;2023-05-07T02:33:18;11.02;;;7.32;;
58137;SDS011;43955;47.362;18.930;2023-05-07T02:35:45;12.02;;;7.68;;
58137;SDS011;43955;47.362;18.930;2023-05-07T02:38:13;11.93;;;7.70;;
58137;SDS011;43955;47.362;18.930;2023-05-07T02:40:40;12.80;;;8.20;;
58137;SDS011;43955;47.362;18.930;2023-05-07T02:43:08;12.23;;;7.35;;
58137;SDS011;43955;47.362;18.930;2023-05-07T02:45:36;13.48;;;7.82;;
58137;SDS011;43955;47.362;18.930;2023-05-07T02:48:05;14.60;;;7.70;;
58137;SDS011;43955;47.362;18.930;2023-05-07T02:50:33;14.30;;;8.10;;
58137;SDS011;43955;47.362;18.930;2023-05-07T02:53:00;11.00;;;7.00;;
58137;SDS011;43955;47.362;18.930;2023-05-07T02:55:28;11.35;;;7.85;;
58137;SDS011;43955;47.362;18.930;2023-05-07T02:57:55;11.02;;;7.35;;
58137;SDS011;43955;47.362;18.930;2023-05-07T03:00:23;14.82;;;7.60;;
58137;SDS011;43955;47.362;18.930;2023-05-07T03:02:51;10.73;;;7.15;;
58137;SDS011;43955;47.362;18.930;2023-05-07T03:05:19;15.25;;;7.90;;
58137;SDS011;43955;47.362;18.930;2023-05-07T03:07:46;12.82;;;7.62;;
58137;SDS011;43955;47.362;18.930;2023-05-07T03:10:14;15.32;;;8.18;;
58137;SDS011;43955;47.362;18.930;2023-05-07T03:12:42;11.65;;;6.95;;
58137;SDS011;43955;47.362;18.930;2023-05-07T03:15:09;11.48;;;7.65;;
58137;SDS011;43955;47.362;18.930;2023-05-07T03:17:39;11.43;;;7.18;;
58137;SDS011;43955;47.362;18.930;2023-05-07T03:20:07;9.45;;;6.30;;
58137;SDS011;43955;47.362;18.930;2023-05-07T03:22:38;9.82;;;6.95;;
58137;SDS011;43955;47.362;18.930;2023-05-07T03:25:06;10.18;;;6.28;;
58137;SDS011;43955;47.362;18.930;2023-05-07T03:27:34;9.07;;;5.90;;
58137;SDS011;43955;47.362;18.930;2023-05-07T03:30:01;10.32;;;5.70;;
58137;SDS011;43955;47.362;18.930;2023-05-07T03:32:30;9.25;;;5.70;;
58137;SDS011;43955;47.362;18.930;2023-05-07T03:34:57;10.52;;;6.45;;
58137;SDS011;43955;47.362;18.930;2023-05-07T03:37:24;9.68;;;6.07;;
58137;SDS011;43955;47.362;18.930;2023-05-07T03:39:52;8.95;;;5.62;;
58137;SDS011;43955;47.362;18.930;2023-05-07T03:42:19;10.48;;;5.10;;
58137;SDS011;43955;47.362;18.930;2023-05-07T03:44:48;9.05;;;5.30;;
58137;SDS011;43955;47.362;18.930;2023-05-07T03:47:15;8.48;;;5.22;;
58137;SDS011;43955;47.362;18.930;2023-05-07T03:49:43;9.05;;;5.45;;
58137;SDS011;43955;47.362;18.930;2023-05-07T03:52:10;7.78;;;4.95;;
58137;SDS011;43955;47.362;18.930;2023-05-07T03:54:37;7.43;;;4.75;;
58137;SDS011;43955;47.362;18.930;2023-05-07T03:57:05;7.95;;;5.07;;
58137;SDS011;43955;47.362;18.930;2023-05-07T03:59:32;8.15;;;4.85;;
58137;SDS011;43955;47.362;18.930;2023-05-07T04:02:00;8.88;;;5.45;;
58137;SDS011;43955;47.362;18.930;2023-05-07T04:04:31;8.25;;;5.68;;
58137;SDS011;43955;47.362;18.930;2023-05-07T04:07:00;11.15;;;6.50;;
58137;SDS011;43955;47.362;18.930;2023-05-07T04:09:27;11.05;;;6.20;;
58137;SDS011;43955;47.362;18.930;2023-05-07T04:11:56;10.73;;;6.60;;
58137;SDS011;43955;47.362;18.930;2023-05-07T04:14:23;11.82;;;6.75;;
58137;SDS011;43955;47.362;18.930;2023-05-07T04:16:51;11.25;;;6.85;;
58137;SDS011;43955;47.362;18.930;2023-05-07T04:19:18;11.68;;;6.62;;
58137;SDS011;43955;47.362;18.930;2023-05-07T04:21:47;9.38;;;6.60;;
58137;SDS011;43955;47.362;18.930;2023-05-07T04:24:14;9.60;;;6.28;;
58137;SDS011;43955;47.362;18.930;2023-05-07T04:26:42;9.63;;;5.85;;
58137;SDS011;43955;47.362;18.930;2023-05-07T04:29:10;10.60;;;7.45;;
58137;SDS011;43955;47.362;18.930;2023-05-07T04:31:38;11.70;;;7.95;;
58137;SDS011;43955;47.362;18.930;2023-05-07T04:34:05;10.27;;;6.62;;
58137;SDS011;43955;47.362;18.930;2023-05-07T04:36:33;11.10;;;6.43;;
58137;SDS011;43955;47.362;18.930;2023-05-07T04:39:02;9.77;;;6.40;;
58137;SDS011;43955;47.362;18.930;2023-05-07T04:41:29;9.25;;;6.85;;
58137;SDS011;43955;47.362;18.930;2023-05-07T04:43:57;12.98;;;7.18;;
58137;SDS011;43955;47.362;18.930;2023-05-07T04:46:26;12.55;;;7.05;;
58137;SDS011;43955;47.362;18.930;2023-05-07T04:48:56;14.70;;;7.40;;
58137;SDS011;43955;47.362;18.930;2023-05-07T04:51:23;11.85;;;7.22;;
58137;SDS011;43955;47.362;18.930;2023-05-07T04:53:50;12.30;;;7.43;;
58137;SDS011;43955;47.362;18.930;2023-05-07T04:56:18;11.38;;;6.68;;
58137;SDS011;43955;47.362;18.930;2023-05-07T04:58:45;13.38;;;8.55;;
58137;SDS011;43955;47.362;18.930;2023-05-07T05:01:13;14.52;;;7.78;;
58137;SDS011;43955;47.362;18.930;2023-05-07T05:03:41;11.60;;;6.82;;
58137;SDS011;43955;47.362;18.930;2023-05-07T05:06:09;11.65;;;7.60;;
58137;SDS011;43955;47.362;18.930;2023-05-07T05:08:36;12.52;;;7.03;;
58137;SDS011;43955;47.362;18.930;2023-05-07T05:11:04;12.50;;;6.68;;
58137;SDS011;43955;47.362;18.930;2023-05-07T05:13:32;13.05;;;7.10;;
58137;SDS011;43955;47.362;18.930;2023-05-07T05:16:00;9.95;;;6.93;;
58137;SDS011;43955;47.362;18.930;2023-05-07T05:18:28;8.90;;;6.00;;
58137;SDS011;43955;47.362;18.930;2023-05-07T05:20:55;9.20;;;5.87;;
58137;SDS011;43955;47.362;18.930;2023-05-07T05:23:23;13.95;;;8.35;;
58137;SDS011;43955;47.362;18.930;2023-05-07T05:25:54;8.02;;;5.93;;
58137;SDS011;43955;47.362;18.930;2023-05-07T05:28:24;9.80;;;6.50;;
58137;SDS011;43955;47.362;18.930;2023-05-07T05:30:52;9.35;;;6.25;;
58137;SDS011;43955;47.362;18.930;2023-05-07T05:33:19;8.27;;;5.78;;
58137;SDS011;43955;47.362;18.930;2023-05-07T05:35:46;9.00;;;5.95;;
58137;SDS011;43955;47.362;18.930;2023-05-07T05:38:14;8.82;;;5.53;;
58137;SDS011;43955;47.362;18.930;2023-05-07T05:40:42;8.45;;;5.50;;
58137;SDS011;43955;47.362;18.930;2023-05-07T05:43:09;10.93;;;5.90;;
58137;SDS011;43955;47.362;18.930;2023-05-07T05:45:37;9.02;;;5.90;;
58137;SDS011;43955;47.362;18.930;2023-05-07T05:48:05;8.27;;;5.40;;
58137;SDS011;43955;47.362;18.930;2023-05-07T05:50:32;12.85;;;6.30;;
58137;SDS011;43955;47.362;18.930;2023-05-07T05:53:00;9.82;;;5.70;;
58137;SDS011;43955;47.362;18.930;2023-05-07T05:55:27;13.32;;;5.85;;
58137;SDS011;43955;47.362;18.930;2023-05-07T05:57:54;10.07;;;5.07;;
58137;SDS011;43955;47.362;18.930;2023-05-07T06:00:22;8.20;;;5.12;;
58137;SDS011;43955;47.362;18.930;2023-05-07T06:02:55;7.50;;;5.77;;
58137;SDS011;43955;47.362;18.930;2023-05-07T06:05:23;8.65;;;5.57;;
58137;SDS011;43955;47.362;18.930;2023-05-07T06:07:51;8.75;;;5.70;;
58137;SDS011;43955;47.362;18.930;2023-05-07T06:10:18;7.57;;;5.03;;
58137;SDS011;43955;47.362;18.930;2023-05-07T06:12:46;6.45;;;4.45;;
58137;SDS011;43955;47.362;18.930;2023-05-07T06:15:13;8.20;;;4.90;;
58137;SDS011;43955;47.362;18.930;2023-05-07T06:17:41;5.60;;;4.20;;
58137;SDS011;43955;47.362;18.930;2023-05-07T06:20:09;9.07;;;4.22;;
58137;SDS011;43955;47.362;18.930;2023-05-07T06:22:38;6.45;;;4.10;;
58137;SDS011;43955;47.362;18.930;2023-05-07T06:25:05;6.50;;;4.55;;
58137;SDS011;43955;47.362;18.930;2023-05-07T06:27:33;11.32;;;3.87;;
58137;SDS011;43955;47.362;18.930;2023-05-07T06:30:01;5.78;;;3.72;;
58137;SDS011;43955;47.362;18.930;2023-05-07T06:32:28;6.30;;;3.50;;
58137;SDS011;43955;47.362;18.930;2023-05-07T06:34:55;4.35;;;3.25;;
58137;SDS011;43955;47.362;18.930;2023-05-07T06:37:22;9.27;;;4.07;;
58137;SDS011;43955;47.362;18.930;2023-05-07T06:39:50;14.52;;;7.95;;
58137;SDS011;43955;47.362;18.930;2023-05-07T06:42:17;6.15;;;3.78;;
58137;SDS011;43955;47.362;18.930;2023-05-07T06:44:45;6.75;;;3.47;;
58137;SDS011;43955;47.362;18.930;2023-05-07T06:47:13;5.43;;;3.40;;
58137;SDS011;43955;47.362;18.930;2023-05-07T06:49:43;6.72;;;3.67;;
58137;SDS011;43955;47.362;18.930;2023-05-07T06:52:12;6.62;;;3.22;;
58137;SDS011;43955;47.362;18.930;2023-05-07T06:54:40;4.43;;;2.62;;
58137;SDS011;43955;47.362;18.930;2023-05-07T06:57:07;4.57;;;3.22;;
58137;SDS011;43955;47.362;18.930;2023-05-07T06:59:34;7.35;;;3.72;;
58137;SDS011;43955;47.362;18.930;2023-05-07T07:02:02;4.30;;;3.30;;
58137;SDS011;43955;47.362;18.930;2023-05-07T07:04:29;6.05;;;2.90;;
58137;SDS011;43955;47.362;18.930;2023-05-07T07:06:58;6.00;;;3.87;;
58137;SDS011;43955;47.362;18.930;2023-05-07T07:09:27;5.35;;;3.83;;
58137;SDS011;43955;47.362;18.930;2023-05-07T07:11:54;6.57;;;4.97;;
58137;SDS011;43955;47.362;18.930;2023-05-07T07:14:21;10.38;;;5.25;;
58137;SDS011;43955;47.362;18.930;2023-05-07T07:16:49;8.27;;;4.80;;
58137;SDS011;43955;47.362;18.930;2023-05-07T07:19:16;8.85;;;4.53;;
58137;SDS011;43955;47.362;18.930;2023-05-07T07:21:44;8.43;;;5.45;;
58137;SDS011;43955;47.362;18.930;2023-05-07T07:24:12;8.82;;;4.95;;
58137;SDS011;43955;47.362;18.930;2023-05-07T07:26:40;7.12;;;5.65;;
58137;SDS011;43955;47.362;18.930;2023-05-07T07:29:09;7.15;;;5.05;;
58137;SDS011;43955;47.362;18.930;2023-05-07T07:31:37;9.73;;;6.03;;
58137;SDS011;43955;47.362;18.930;2023-05-07T07:34:04;8.20;;;5.60;;
58137;SDS011;43955;47.362;18.930;2023-05-07T07:36:32;10.15;;;6.37;;
58137;SDS011;43955;47.362;18.930;2023-05-07T07:39:12;9.07;;;6.53;;
58137;SDS011;43955;47.362;18.930;2023-05-07T07:41:40;10.38;;;6.78;;
58137;SDS011;43955;47.362;18.930;2023-05-07T07:44:07;9.23;;;6.10;;
58137;SDS011;43955;47.362;18.930;2023-05-07T07:46:36;9.48;;;6.65;;
58137;SDS011;43955;47.362;18.930;2023-05-07T07:49:03;10.73;;;7.00;;
58137;SDS011;43955;47.362;18.930;2023-05-07T07:51:31;9.85;;;6.53;;
58137;SDS011;43955;47.362;18.930;2023-05-07T07:53:58;10.52;;;6.65;;
58137;SDS011;43955;47.362;18.930;2023-05-07T07:56:26;9.63;;;6.93;;
58137;SDS011;43955;47.362;18.930;2023-05-07T07:58:53;8.88;;;5.78;;
58137;SDS011;43955;47.362;18.930;2023-05-07T08:01:21;10.77;;;6.35;;
58137;SDS011;43955;47.362;18.930;2023-05-07T08:03:49;11.82;;;6.28;;
58137;SDS011;43955;47.362;18.930;2023-05-07T08:06:16;10.25;;;6.12;;
58137;SDS011;43955;47.362;18.930;2023-05-07T08:08:44;8.98;;;5.60;;
58137;SDS011;43955;47.362;18.930;2023-05-07T08:11:11;8.95;;;5.50;;
58137;SDS011;43955;47.362;18.930;2023-05-07T08:13:39;11.35;;;6.37;;
58137;SDS011;43955;47.362;18.930;2023-05-07T08:16:06;9.30;;;6.28;;
58137;SDS011;43955;47.362;18.930;2023-05-07T08:18:34;6.65;;;4.78;;
58137;SDS011;43955;47.362;18.930;2023-05-07T08:21:01;6.70;;;4.72;;
58137;SDS011;43955;47.362;18.930;2023-05-07T08:23:29;7.53;;;5.10;;
58137;SDS011;43955;47.362;18.930;2023-05-07T08:25:57;7.90;;;5.05;;
58137;SDS011;43955;47.362;18.930;2023-05-07T08:28:24;10.15;;;5.20;;
58137;SDS011;43955;47.362;18.930;2023-05-07T08:30:52;7.97;;;5.00;;
58137;SDS011;43955;47.362;18.930;2023-05-07T08:33:19;10.43;;;5.32;;
58137;SDS011;43955;47.362;18.930;2023-05-07T08:35:47;7.35;;;5.32;;
58137;SDS011;43955;47.362;18.930;2023-05-07T08:38:14;9.45;;;5.40;;
58137;SDS011;43955;47.362;18.930;2023-05-07T08:40:41;9.02;;;5.78;;
58137;SDS011;43955;47.362;18.930;2023-05-07T08:43:11;7.97;;;5.62;;
58137;SDS011;43955;47.362;18.930;2023-05-07T08:45:39;15.73;;;5.80;;
58137;SDS011;43955;47.362;18.930;2023-05-07T08:48:09;7.97;;;5.43;;
58137;SDS011;43955;47.362;18.930;2023-05-07T08:50:43;13.00;;;5.50;;
58137;SDS011;43955;47.362;18.930;2023-05-07T08:53:10;8.35;;;6.12;;
58137;SDS011;43955;47.362;18.930;2023-05-07T08:55:38;8.25;;;5.35;;
58137;SDS011;43955;47.362;18.930;2023-05-07T08:58:05;8.50;;;5.43;;
58137;SDS011;43955;47.362;18.930;2023-05-07T09:00:35;8.30;;;5.68;;
58137;SDS011;43955;47.362;18.930;2023-05-07T09:03:03;9.02;;;5.40;;
58137;SDS011;43955;47.362;18.930;2023-05-07T09:05:30;7.90;;;5.32;;
58137;SDS011;43955;47.362;18.930;2023-05-07T09:07:59;11.48;;;5.78;;
58137;SDS011;43955;47.362;18.930;2023-05-07T09:10:27;9.90;;;5.80;;
58137;SDS011;43955;47.362;18.930;2023-05-07T09:12:54;7.05;;;5.30;;
58137;SDS011;43955;47.362;18.930;2023-05-07T09:15:21;14.85;;;6.85;;
58137;SDS011;43955;47.362;18.930;2023-05-07T09:17:49;10.05;;;5.95;;
58137;SDS011;43955;47.362;18.930;2023-05-07T09:20:16;8.32;;;5.20;;
58137;SDS011;43955;47.362;18.930;2023-05-07T09:22:43;8.10;;;5.10;;
58137;SDS011;43955;47.362;18.930;2023-05-07T09:25:11;7.40;;;4.70;;
58137;SDS011;43955;47.362;18.930;2023-05-07T09:27:41;6.15;;;4.47;;
58137;SDS011;43955;47.362;18.930;2023-05-07T09:30:08;7.15;;;4.12;;
58137;SDS011;43955;47.362;18.930;2023-05-07T09:32:36;6.32;;;4.47;;
58137;SDS011;43955;47.362;18.930;2023-05-07T09:35:15;5.95;;;4.20;;
58137;SDS011;43955;47.362;18.930;2023-05-07T09:37:44;6.93;;;3.10;;
58137;SDS011;43955;47.362;18.930;2023-05-07T09:40:47;5.68;;;3.60;;
58137;SDS011;43955;47.362;18.930;2023-05-07T09:43:10;6.33;;;3.70;;
58137;SDS011;43955;47.362;18.930;2023-05-07T09:45:39;6.72;;;3.45;;
58137;SDS011;43955;47.362;18.930;2023-05-07T09:48:07;4.10;;;3.05;;
58137;SDS011;43955;47.362;18.930;2023-05-07T09:50:36;6.03;;;3.50;;
58137;SDS011;43955;47.362;18.930;2023-05-07T09:53:06;5.95;;;3.05;;
58137;SDS011;43955;47.362;18.930;2023-05-07T09:55:33;5.07;;;3.00;;
58137;SDS011;43955;47.362;18.930;2023-05-07T09:58:01;4.93;;;2.90;;
58137;SDS011;43955;47.362;18.930;2023-05-07T10:00:29;6.95;;;4.57;;
58137;SDS011;43955;47.362;18.930;2023-05-07T10:02:58;7.15;;;4.80;;
58137;SDS011;43955;47.362;18.930;2023-05-07T10:05:28;8.73;;;5.05;;
58137;SDS011;43955;47.362;18.930;2023-05-07T10:07:55;7.20;;;4.82;;
58137;SDS011;43955;47.362;18.930;2023-05-07T10:10:24;5.80;;;4.32;;
58137;SDS011;43955;47.362;18.930;2023-05-07T10:12:52;7.10;;;4.82;;
58137;SDS011;43955;47.362;18.930;2023-05-07T10:15:20;7.15;;;4.75;;
58137;SDS011;43955;47.362;18.930;2023-05-07T10:17:48;8.35;;;5.72;;
58137;SDS011;43955;47.362;18.930;2023-05-07T10:20:17;7.57;;;5.30;;
58137;SDS011;43955;47.362;18.930;2023-05-07T10:22:45;13.05;;;5.47;;
58137;SDS011;43955;47.362;18.930;2023-05-07T10:25:18;8.82;;;5.85;;
58137;SDS011;43955;47.362;18.930;2023-05-07T10:27:50;8.70;;;5.93;;
58137;SDS011;43955;47.362;18.930;2023-05-07T10:30:56;8.95;;;6.00;;
58137;SDS011;43955;47.362;18.930;2023-05-07T10:33:15;13.68;;;6.65;;
58137;SDS011;43955;47.362;18.930;2023-05-07T10:35:45;11.07;;;6.10;;
58137;SDS011;43955;47.362;18.930;2023-05-07T10:38:14;9.50;;;6.32;;
58137;SDS011;43955;47.362;18.930;2023-05-07T10:40:43;8.50;;;6.28;;
58137;SDS011;43955;47.362;18.930;2023-05-07T10:43:15;8.97;;;6.30;;
58137;SDS011;43955;47.362;18.930;2023-05-07T10:45:43;10.93;;;5.95;;
58137;SDS011;43955;47.362;18.930;2023-05-07T10:48:14;8.35;;;5.80;;
58137;SDS011;43955;47.362;18.930;2023-05-07T10:50:45;7.82;;;5.50;;
58137;SDS011;43955;47.362;18.930;2023-05-07T10:55:47;7.43;;;5.47;;
58137;SDS011;43955;47.362;18.930;2023-05-07T10:58:26;6.70;;;4.73;;
58137;SDS011;43955;47.362;18.930;2023-05-07T11:01:00;5.70;;;4.07;;
58137;SDS011;43955;47.362;18.930;2023-05-07T11:03:29;5.18;;;3.80;;
58137;SDS011;43955;47.362;18.930;2023-05-07T11:06:10;5.85;;;3.60;;
58137;SDS011;43955;47.362;18.930;2023-05-07T11:08:58;6.10;;;3.25;;
58137;SDS011;43955;47.362;18.930;2023-05-07T11:14:30;5.93;;;3.40;;
58137;SDS011;43955;47.362;18.930;2023-05-07T11:17:09;6.25;;;4.20;;
58137;SDS011;43955;47.362;18.930;2023-05-07T11:19:50;7.45;;;4.28;;
58137;SDS011;43955;47.362;18.930;2023-05-07T11:25:04;12.50;;;4.12;;
58137;SDS011;43955;47.362;18.930;2023-05-07T11:27:33;4.30;;;3.30;;
58137;SDS011;43955;47.362;18.930;2023-05-07T11:30:00;4.18;;;3.78;;
58137;SDS011;43955;47.362;18.930;2023-05-07T11:32:30;5.70;;;3.70;;
58137;SDS011;43955;47.362;18.930;2023-05-07T11:34:59;5.60;;;3.87;;
58137;SDS011;43955;47.362;18.930;2023-05-07T11:37:27;4.22;;;3.47;;
58137;SDS011;43955;47.362;18.930;2023-05-07T11:40:04;6.45;;;4.25;;
58137;SDS011;43955;47.362;18.930;2023-05-07T11:42:36;6.97;;;4.68;;
58137;SDS011;43955;47.362;18.930;2023-05-07T11:45:05;4.50;;;3.08;;
58137;SDS011;43955;47.362;18.930;2023-05-07T11:47:33;4.03;;;3.20;;
58137;SDS011;43955;47.362;18.930;2023-05-07T11:50:02;5.15;;;3.83;;
58137;SDS011;43955;47.362;18.930;2023-05-07T11:52:32;5.15;;;4.15;;
58137;SDS011;43955;47.362;18.930;2023-05-07T11:55:02;4.18;;;2.90;;
58137;SDS011;43955;47.362;18.930;2023-05-07T11:57:32;11.57;;;3.78;;
58137;SDS011;43955;47.362;18.930;2023-05-07T12:00:00;4.62;;;2.47;;
58137;SDS011;43955;47.362;18.930;2023-05-07T12:02:38;4.80;;;2.55;;
58137;SDS011;43955;47.362;18.930;2023-05-07T12:05:06;3.17;;;2.55;;
58137;SDS011;43955;47.362;18.930;2023-05-07T12:07:33;4.18;;;2.85;;
58137;SDS011;43955;47.362;18.930;2023-05-07T12:10:04;4.30;;;2.85;;
58137;SDS011;43955;47.362;18.930;2023-05-07T12:12:45;7.70;;;2.28;;
58137;SDS011;43955;47.362;18.930;2023-05-07T12:15:16;4.53;;;2.78;;
58137;SDS011;43955;47.362;18.930;2023-05-07T12:17:44;3.65;;;2.50;;
58137;SDS011;43955;47.362;18.930;2023-05-07T12:20:11;5.15;;;2.40;;
58137;SDS011;43955;47.362;18.930;2023-05-07T12:22:39;3.45;;;2.33;;
58137;SDS011;43955;47.362;18.930;2023-05-07T12:25:06;4.20;;;2.35;;
58137;SDS011;43955;47.362;18.930;2023-05-07T12:27:36;4.75;;;2.40;;
58137;SDS011;43955;47.362;18.930;2023-05-07T12:30:05;3.40;;;2.45;;
58137;SDS011;43955;47.362;18.930;2023-05-07T12:32:32;5.32;;;3.10;;
58137;SDS011;43955;47.362;18.930;2023-05-07T12:35:05;5.25;;;2.53;;
58137;SDS011;43955;47.362;18.930;2023-05-07T12:37:33;3.72;;;2.78;;
58137;SDS011;43955;47.362;18.930;2023-05-07T12:40:08;4.22;;;2.45;;
58137;SDS011;43955;47.362;18.930;2023-05-07T12:42:37;3.45;;;2.20;;
58137;SDS011;43955;47.362;18.930;2023-05-07T12:45:13;5.55;;;2.37;;
58137;SDS011;43955;47.362;18.930;2023-05-07T12:47:47;3.45;;;2.40;;
58137;SDS011;43955;47.362;18.930;2023-05-07T12:50:15;4.12;;;2.42;;
58137;SDS011;43955;47.362;18.930;2023-05-07T12:52:45;6.80;;;2.60;;
58137;SDS011;43955;47.362;18.930;2023-05-07T12:55:14;2.72;;;2.30;;
58137;SDS011;43955;47.362;18.930;2023-05-07T12:57:47;4.72;;;2.60;;
58137;SDS011;43955;47.362;18.930;2023-05-07T13:00:16;3.87;;;2.37;;
58137;SDS011;43955;47.362;18.930;2023-05-07T13:02:43;3.42;;;2.35;;
58137;SDS011;43955;47.362;18.930;2023-05-07T13:05:11;3.92;;;2.50;;
58137;SDS011;43955;47.362;18.930;2023-05-07T13:07:39;6.05;;;2.62;;
58137;SDS011;43955;47.362;18.930;2023-05-07T13:10:07;5.80;;;2.60;;
58137;SDS011;43955;47.362;18.930;2023-05-07T13:12:35;3.90;;;2.60;;
58137;SDS011;43955;47.362;18.930;2023-05-07T13:15:03;6.25;;;3.08;;
58137;SDS011;43955;47.362;18.930;2023-05-07T13:17:30;5.68;;;2.92;;
58137;SDS011;43955;47.362;18.930;2023-05-07T13:19:58;4.80;;;2.83;;
58137;SDS011;43955;47.362;18.930;2023-05-07T13:22:26;6.12;;;2.53;;
58137;SDS011;43955;47.362;18.930;2023-05-07T13:24:53;5.70;;;2.17;;
58137;SDS011;43955;47.362;18.930;2023-05-07T13:27:20;3.87;;;2.17;;
58137;SDS011;43955;47.362;18.930;2023-05-07T13:29:48;6.10;;;3.00;;
58137;SDS011;43955;47.362;18.930;2023-05-07T13:32:15;4.28;;;2.90;;
58137;SDS011;43955;47.362;18.930;2023-05-07T13:34:42;4.45;;;2.45;;
58137;SDS011;43955;47.362;18.930;2023-05-07T13:37:10;4.05;;;3.15;;
58137;SDS011;43955;47.362;18.930;2023-05-07T13:39:38;5.60;;;2.80;;
58137;SDS011;43955;47.362;18.930;2023-05-07T13:42:05;4.05;;;2.60;;
58137;SDS011;43955;47.362;18.930;2023-05-07T13:44:32;3.10;;;2.30;;
58137;SDS011;43955;47.362;18.930;2023-05-07T13:47:00;4.25;;;2.20;;
58137;SDS011;43955;47.362;18.930;2023-05-07T13:49:28;3.25;;;2.15;;
58137;SDS011;43955;47.362;18.930;2023-05-07T13:51:55;4.32;;;2.42;;
58137;SDS011;43955;47.362;18.930;2023-05-07T13:54:23;3.33;;;2.65;;
58137;SDS011;43955;47.362;18.930;2023-05-07T13:56:50;3.53;;;2.17;;
58137;SDS011;43955;47.362;18.930;2023-05-07T13:59:18;4.97;;;2.50;;
58137;SDS011;43955;47.362;18.930;2023-05-07T14:01:45;4.05;;;2.83;;
58137;SDS011;43955;47.362;18.930;2023-05-07T14:04:13;4.28;;;3.22;;
58137;SDS011;43955;47.362;18.930;2023-05-07T14:06:40;4.78;;;2.83;;
58137;SDS011;43955;47.362;18.930;2023-05-07T14:09:07;6.40;;;2.58;;
58137;SDS011;43955;47.362;18.930;2023-05-07T14:11:34;3.12;;;2.40;;
58137;SDS011;43955;47.362;18.930;2023-05-07T14:14:02;8.27;;;2.35;;
58137;SDS011;43955;47.362;18.930;2023-05-07T14:16:29;3.47;;;2.75;;
58137;SDS011;43955;47.362;18.930;2023-05-07T14:18:57;4.68;;;2.47;;
58137;SDS011;43955;47.362;18.930;2023-05-07T14:21:24;3.55;;;2.47;;
58137;SDS011;43955;47.362;18.930;2023-05-07T14:23:52;4.15;;;2.47;;
58137;SDS011;43955;47.362;18.930;2023-05-07T14:26:19;3.37;;;2.70;;
58137;SDS011;43955;47.362;18.930;2023-05-07T14:28:47;6.90;;;3.30;;
58137;SDS011;43955;47.362;18.930;2023-05-07T14:31:14;4.78;;;2.90;;
58137;SDS011;43955;47.362;18.930;2023-05-07T14:33:42;5.68;;;2.83;;
58137;SDS011;43955;47.362;18.930;2023-05-07T14:36:09;4.35;;;3.03;;
58137;SDS011;43955;47.362;18.930;2023-05-07T14:38:36;4.37;;;2.85;;
58137;SDS011;43955;47.362;18.930;2023-05-07T14:41:03;8.68;;;3.20;;
58137;SDS011;43955;47.362;18.930;2023-05-07T14:43:31;4.18;;;3.10;;
58137;SDS011;43955;47.362;18.930;2023-05-07T14:45:58;4.57;;;3.20;;